Vestborg — E5U2070 — position and weather

sailwx.info

Track history (hours):
 
Tides and Currents Weather Stations Pressure Air Temp Water Temp Dewpoint Dewpoint Depression Visibility Wind Speed Wind Dir Waves Ship Positions

Vestborg

Last reported at 2016-Sep-07 22:28 UTC. Time now 2016-Sep-28 23:57 UTC.
Position N 67°44' E 014°31'.
Warning: this ship's position is 21 days out of date.

Length 66 m; draft 5.3 m.

Type: Cargo ship. MMSI: 518120000.

Date/timePositionNaut miles runAvg speedWind from/ knotsBaromVisibWave heightAir tempDewpointWater temp
2016-Sep-07 22:28N 67°44' E 014°31'8 8.3
2016-Sep-07 21:33N 67°36' E 014°30'8 8.3
2016-Sep-07 20:33N 67°28' E 014°29'8 8.4
2016-Sep-07 19:33N 67°20' E 014°21'9 8.8
2016-Sep-07 18:33N 67°13' E 014°07'9 8.6
2016-Sep-07 17:33N 67°06' E 013°56'9 8.8
2016-Sep-07 16:31N 66°59' E 013°41'7 7.1
2016-Sep-07 15:33N 66°54' E 013°27'12 8.4
2016-Sep-07 14:07N 66°44' E 013°11'16 8.3
2016-Sep-07 12:14N 66°29' E 012°59'6 8.9
2016-Sep-07 11:32N 66°23' E 012°58'69 8.2
2016-Sep-07 03:08N 65°19' E 011°59'6 7.9
2016-Sep-07 02:22N 65°13' E 011°54'8 7.9
2016-Sep-07 01:21N 65°05' E 011°47'7 8.7
2016-Sep-07 00:33N 65°01' E 011°34'8 8.0
2016-Sep-06 23:33N 64°55' E 011°22'10 9.6
2016-Sep-06 22:34N 64°48' E 011°07'56 8.0
2016-Sep-06 15:33N 64°03' E 009°50'8 8.4
2016-Sep-06 14:33N 63°55' E 009°47'8 8.5
2016-Sep-06 13:33N 63°49' E 009°34'8 8.5
2016-Sep-06 12:33N 63°41' E 009°29'10 8.3
2016-Sep-06 11:20N 63°32' E 009°16'29 8.9
2016-Sep-06 08:05N 63°19' E 008°18'5 9.4
2016-Sep-06 07:33N 63°17' E 008°09'9 8.8
2016-Sep-06 06:33N 63°12' E 007°52'17 8.5
2016-Sep-06 04:33N 63°03' E 007°20'9 8.4
2016-Sep-06 03:28N 63°00' E 007°01'10 8.5
2016-Sep-06 02:19N 62°54' E 006°45'7 8.9
2016-Sep-06 01:33N 62°48' E 006°37'9 8.8
2016-Sep-06 00:33N 62°41' E 006°26'6 0.3
2016-Sep-05 00:33N 62°46' E 006°34'7 7.1
2016-Sep-04 23:31N 62°52' E 006°42'10 7.6
2016-Sep-04 22:11N 62°60' E 006°57'5 7.6
2016-Sep-04 21:33N 63°01' E 007°07'8 8.2
2016-Sep-04 20:33N 63°04' E 007°24'9 8.8
2016-Sep-04 19:33N 63°09' E 007°41'9 8.8
2016-Sep-04 18:33N 63°14' E 007°57'9 9.0
2016-Sep-04 17:33N 63°18' E 008°14'26 8.7
2016-Sep-04 14:31N 63°30' E 009°06'10 8.4
2016-Sep-04 13:20N 63°35' E 009°26'6 7.8
2016-Sep-04 12:33N 63°41' E 009°30'9 8.6
2016-Sep-04 11:33N 63°49' E 009°36'8 8.2
2016-Sep-04 10:32N 63°56' E 009°47'8 8.3
2016-Sep-04 09:33N 64°04' E 009°51'54 7.8
2016-Sep-04 02:33N 64°48' E 011°05'8 8.5
2016-Sep-04 01:33N 64°54' E 011°20'8 8.3
2016-Sep-04 00:33N 65°00' E 011°31'8 8.3
2016-Sep-03 23:33N 65°05' E 011°47'9 8.6
2016-Sep-03 22:33N 65°13' E 011°54'9 8.4
2016-Sep-03 21:32N 65°21' E 012°03'65 8.2
2016-Sep-03 13:33N 66°22' E 012°58'8 8.3
2016-Sep-03 12:32N 66°31' E 012°58'19 7.8
2016-Sep-03 10:08N 66°48' E 013°15'7 8.2
2016-Sep-03 09:21N 66°54' E 013°25'6 7.0
2016-Sep-03 08:33N 66°58' E 013°34'9 8.8
2016-Sep-03 07:33N 67°03' E 013°52'9 8.9
2016-Sep-03 06:33N 67°11' E 014°03'9 9.0
2016-Sep-03 05:33N 67°18' E 014°16'9 8.9
2016-Sep-03 04:33N 67°26' E 014°28'9 8.8
2016-Sep-03 03:33N 67°32' E 014°44'9 8.9
2016-Sep-03 02:33N 67°36' E 015°05'10 9.5
2016-Sep-03 01:33N 67°31' E 015°26'9 9.2
2016-Sep-03 00:33N 67°35' E 015°49'2 0.2
2016-Sep-02 15:30N 67°34' E 015°43'7 7.5
2016-Sep-02 14:33N 67°31' E 015°27'8 8.0
2016-Sep-02 13:33N 67°35' E 015°08'93 3.8
2016-Sep-01 13:17N 68°57' E 017°09'3 0.2
2016-Aug-31 19:33N 68°56' E 017°18'91 3.9
2016-Aug-30 20:11N 67°57' E 014°08'10 8.8
2016-Aug-30 19:05N 67°47' E 014°09'5 9.1
2016-Aug-30 18:33N 67°43' E 014°09'9 9.0
2016-Aug-30 17:33N 67°34' E 014°09'9 8.8
2016-Aug-30 16:33N 67°25' E 014°08'8 7.7
2016-Aug-30 15:33N 67°18' E 014°16'2 2.3
2016-Aug-30 14:33N 67°16' E 014°21'0 0.0
2016-Aug-30 13:34N 67°16' E 014°21'0 0.0
2016-Aug-30 12:33N 67°16' E 014°21'0 0.0
2016-Aug-30 11:33N 67°16' E 014°21'0 0.0
2016-Aug-30 10:33N 67°16' E 014°21'0 0.0
2016-Aug-30 09:33N 67°16' E 014°21'0 0.0
2016-Aug-30 08:33N 67°16' E 014°21'0 0.0
2016-Aug-30 07:34N 67°16' E 014°21'2 2.3
2016-Aug-30 06:33N 67°15' E 014°25'6 6.3
2016-Aug-30 05:33N 67°13' E 014°41'2 1.9
2016-Aug-30 04:33N 67°14' E 014°45'1 0.9
2016-Aug-30 03:33N 67°15' E 014°47'1 0.8
2016-Aug-30 02:33N 67°15' E 014°49'3 3.1
2016-Aug-30 01:33N 67°16' E 014°57'3 3.5
2016-Aug-30 00:33N 67°13' E 014°59'3 0.5
2016-Aug-29 19:04N 67°10' E 014°55'5 9.3
2016-Aug-29 18:33N 67°14' E 015°01'8 8.0
2016-Aug-29 17:34N 67°13' E 014°41'4 3.5
2016-Aug-29 16:33N 67°15' E 014°33'6 6.3
2016-Aug-29 15:33N 67°12' E 014°19'5 5.3
2016-Aug-29 14:33N 67°07' E 014°16'3 0.3
2016-Aug-29 04:23N 67°05' E 014°19'3 4.0
2016-Aug-29 03:33N 67°08' E 014°16'5 5.3
2016-Aug-29 02:34N 67°13' E 014°19'1 1.3
2016-Aug-29 01:33N 67°14' E 014°18'0 0.1
2016-Aug-29 00:33N 67°14' E 014°18'3 2.5
2016-Aug-28 23:33N 67°15' E 014°24'3 2.7
2016-Aug-28 22:33N 67°15' E 014°31'  
Track history (hours):
 
Tides and Currents Weather Stations Pressure Air Temp Water Temp Dewpoint Dewpoint Depression Visibility Wind Speed Wind Dir Waves Ship Positions

Vestborg

Last reported at 2016-Sep-07 22:28 UTC. Time now 2016-Sep-28 23:57 UTC.
Position N 67°44' E 014°31'.
Warning: this ship's position is 21 days out of date.

Length 66 m; draft 5.3 m.

Type: Cargo ship. MMSI: 518120000.

Date/timePositionNaut miles runAvg speedWind from/ knotsBaromVisibWave heightAir tempDewpointWater temp
2016-Sep-07 22:28N 67°44' E 014°31'8 8.3
2016-Sep-07 21:33N 67°36' E 014°30'8 8.3
2016-Sep-07 20:33N 67°28' E 014°29'8 8.4
2016-Sep-07 19:33N 67°20' E 014°21'9 8.8
2016-Sep-07 18:33N 67°13' E 014°07'9 8.6
2016-Sep-07 17:33N 67°06' E 013°56'9 8.8
2016-Sep-07 16:31N 66°59' E 013°41'7 7.1
2016-Sep-07 15:33N 66°54' E 013°27'12 8.4
2016-Sep-07 14:07N 66°44' E 013°11'16 8.3
2016-Sep-07 12:14N 66°29' E 012°59'6 8.9
2016-Sep-07 11:32N 66°23' E 012°58'69 8.2
2016-Sep-07 03:08N 65°19' E 011°59'6 7.9
2016-Sep-07 02:22N 65°13' E 011°54'8 7.9
2016-Sep-07 01:21N 65°05' E 011°47'7 8.7
2016-Sep-07 00:33N 65°01' E 011°34'8 8.0
2016-Sep-06 23:33N 64°55' E 011°22'10 9.6
2016-Sep-06 22:34N 64°48' E 011°07'56 8.0
2016-Sep-06 15:33N 64°03' E 009°50'8 8.4
2016-Sep-06 14:33N 63°55' E 009°47'8 8.5
2016-Sep-06 13:33N 63°49' E 009°34'8 8.5
2016-Sep-06 12:33N 63°41' E 009°29'10 8.3
2016-Sep-06 11:20N 63°32' E 009°16'29 8.9
2016-Sep-06 08:05N 63°19' E 008°18'5 9.4
2016-Sep-06 07:33N 63°17' E 008°09'9 8.8
2016-Sep-06 06:33N 63°12' E 007°52'17 8.5
2016-Sep-06 04:33N 63°03' E 007°20'9 8.4
2016-Sep-06 03:28N 63°00' E 007°01'10 8.5
2016-Sep-06 02:19N 62°54' E 006°45'7 8.9
2016-Sep-06 01:33N 62°48' E 006°37'9 8.8
2016-Sep-06 00:33N 62°41' E 006°26'6 0.3
2016-Sep-05 00:33N 62°46' E 006°34'7 7.1
2016-Sep-04 23:31N 62°52' E 006°42'10 7.6
2016-Sep-04 22:11N 62°60' E 006°57'5 7.6
2016-Sep-04 21:33N 63°01' E 007°07'8 8.2
2016-Sep-04 20:33N 63°04' E 007°24'9 8.8
2016-Sep-04 19:33N 63°09' E 007°41'9 8.8
2016-Sep-04 18:33N 63°14' E 007°57'9 9.0
2016-Sep-04 17:33N 63°18' E 008°14'26 8.7
2016-Sep-04 14:31N 63°30' E 009°06'10 8.4
2016-Sep-04 13:20N 63°35' E 009°26'6 7.8
2016-Sep-04 12:33N 63°41' E 009°30'9 8.6
2016-Sep-04 11:33N 63°49' E 009°36'8 8.2
2016-Sep-04 10:32N 63°56' E 009°47'8 8.3
2016-Sep-04 09:33N 64°04' E 009°51'54 7.8
2016-Sep-04 02:33N 64°48' E 011°05'8 8.5
2016-Sep-04 01:33N 64°54' E 011°20'8 8.3
2016-Sep-04 00:33N 65°00' E 011°31'8 8.3
2016-Sep-03 23:33N 65°05' E 011°47'9 8.6
2016-Sep-03 22:33N 65°13' E 011°54'9 8.4
2016-Sep-03 21:32N 65°21' E 012°03'65 8.2
2016-Sep-03 13:33N 66°22' E 012°58'8 8.3
2016-Sep-03 12:32N 66°31' E 012°58'19 7.8
2016-Sep-03 10:08N 66°48' E 013°15'7 8.2
2016-Sep-03 09:21N 66°54' E 013°25'6 7.0
2016-Sep-03 08:33N 66°58' E 013°34'9 8.8
2016-Sep-03 07:33N 67°03' E 013°52'9 8.9
2016-Sep-03 06:33N 67°11' E 014°03'9 9.0
2016-Sep-03 05:33N 67°18' E 014°16'9 8.9
2016-Sep-03 04:33N 67°26' E 014°28'9 8.8
2016-Sep-03 03:33N 67°32' E 014°44'9 8.9
2016-Sep-03 02:33N 67°36' E 015°05'10 9.5
2016-Sep-03 01:33N 67°31' E 015°26'9 9.2
2016-Sep-03 00:33N 67°35' E 015°49'2 0.2
2016-Sep-02 15:30N 67°34' E 015°43'7 7.5
2016-Sep-02 14:33N 67°31' E 015°27'8 8.0
2016-Sep-02 13:33N 67°35' E 015°08'93 3.8
2016-Sep-01 13:17N 68°57' E 017°09'3 0.2
2016-Aug-31 19:33N 68°56' E 017°18'91 3.9
2016-Aug-30 20:11N 67°57' E 014°08'10 8.8
2016-Aug-30 19:05N 67°47' E 014°09'5 9.1
2016-Aug-30 18:33N 67°43' E 014°09'9 9.0
2016-Aug-30 17:33N 67°34' E 014°09'9 8.8
2016-Aug-30 16:33N 67°25' E 014°08'8 7.7
2016-Aug-30 15:33N 67°18' E 014°16'2 2.3
2016-Aug-30 14:33N 67°16' E 014°21'0 0.0
2016-Aug-30 13:34N 67°16' E 014°21'0 0.0
2016-Aug-30 12:33N 67°16' E 014°21'0 0.0
2016-Aug-30 11:33N 67°16' E 014°21'0 0.0
2016-Aug-30 10:33N 67°16' E 014°21'0 0.0
2016-Aug-30 09:33N 67°16' E 014°21'0 0.0
2016-Aug-30 08:33N 67°16' E 014°21'0 0.0
2016-Aug-30 07:34N 67°16' E 014°21'2 2.3
2016-Aug-30 06:33N 67°15' E 014°25'6 6.3
2016-Aug-30 05:33N 67°13' E 014°41'2 1.9
2016-Aug-30 04:33N 67°14' E 014°45'1 0.9
2016-Aug-30 03:33N 67°15' E 014°47'1 0.8
2016-Aug-30 02:33N 67°15' E 014°49'3 3.1
2016-Aug-30 01:33N 67°16' E 014°57'3 3.5
2016-Aug-30 00:33N 67°13' E 014°59'3 0.5
2016-Aug-29 19:04N 67°10' E 014°55'5 9.3
2016-Aug-29 18:33N 67°14' E 015°01'8 8.0
2016-Aug-29 17:34N 67°13' E 014°41'4 3.5
2016-Aug-29 16:33N 67°15' E 014°33'6 6.3
2016-Aug-29 15:33N 67°12' E 014°19'5 5.3
2016-Aug-29 14:33N 67°07' E 014°16'3 0.3
2016-Aug-29 04:23N 67°05' E 014°19'3 4.0
2016-Aug-29 03:33N 67°08' E 014°16'5 5.3
2016-Aug-29 02:34N 67°13' E 014°19'1 1.3
2016-Aug-29 01:33N 67°14' E 014°18'0 0.1
2016-Aug-29 00:33N 67°14' E 014°18'3 2.5
2016-Aug-28 23:33N 67°15' E 014°24'3 2.7
2016-Aug-28 22:33N 67°15' E 014°31'  

Dump ship's entire track history